PWT weather

Puerto Wlches Airport
Puerto Wilches, Santander Department, Colombia

Public forecast

Using degrees Celsius for public forecast. Weather courtesy of forecast.io.

Closest aviation weather report (METAR) to Puerto Wlches Airport

Report is more than 6 hours old.

Closest report is YariguĂ­es Airport, 20.3 nm (37.6 km) SSE. Retrieved 2019/10/14 23:00 UTC (10 hours ago):

SKEJ 142300Z 00000KT 9999 FEW025 BKN200 27/23 A2978

Closest aviation forecast (TAF) to Puerto Wlches Airport

Closest forecast is Palonegro Airport, 44.7 nm (82.7 km) ESE. Retrieved 2019/10/15 06:51 UTC (2 hours ago):

TAF TAF SKBG 150430Z 1506/1606 00000KT 9999 SCT010 SCT120 PROB40 TEMPO 1509/1513 3000 RADZ BCFG SCT010CB BKN070 BECMG 1514/1516 32010KT TEMPO 1520/1524 5000 DZRA BKN014 SCT080 TX27/1519Z TN18/1511Z